Time;durP1;ratioP1;P1;durP2;ratioP2;P2;SDS_P1;SDS_P2;PMS_P1;PMS_P2;Temp;Humidity;BMP_temperature;BMP_pressure;BME280_temperature;BME280_humidity;BME280_pressure;Samples;Min_cycle;Max_cycle;Signal;HPM_P1;HPM_P2
2021/09/07 00:01:16;;;;;;;10.15;7.47;;;;;;;23.98;50.96;101643.56;5014649;28;20050;-62
2021/09/07 00:03:43;;;;;;;16.30;8.48;;;;;;;24.25;49.65;101634.69;5015361;28;20436;-61
2021/09/07 00:06:11;;;;;;;12.02;7.85;;;;;;;24.11;50.91;101642.16;5015093;28;20050;-61
2021/09/07 00:08:38;;;;;;;15.07;8.38;;;;;;;23.86;51.51;101638.97;5017362;28;20047;-62
2021/09/07 00:11:06;;;;;;;12.20;7.70;;;;;;;23.83;51.07;101639.75;5015247;28;20570;-62
2021/09/07 00:13:34;;;;;;;12.88;7.85;;;;;;;23.88;51.23;101635.78;5034991;28;20041;-61
2021/09/07 00:16:02;;;;;;;10.98;7.18;;;;;;;23.89;51.09;101632.59;5026771;28;20069;-62
2021/09/07 00:18:30;;;;;;;13.55;8.13;;;;;;;23.80;51.98;101640.50;5021132;28;20045;-63
2021/09/07 00:20:57;;;;;;;15.35;7.97;;;;;;;23.79;51.69;101640.88;5019293;28;20046;-62
2021/09/07 00:23:25;;;;;;;10.85;7.68;;;;;;;23.60;52.08;101639.00;5021406;28;20061;-62
2021/09/07 00:25:52;;;;;;;12.93;7.78;;;;;;;23.54;52.38;101646.13;5023653;28;20401;-62
2021/09/07 00:28:19;;;;;;;11.15;7.57;;;;;;;23.63;51.96;101637.41;5024487;28;20053;-62
2021/09/07 00:30:47;;;;;;;15.98;7.60;;;;;;;23.57;52.66;101633.34;5024465;28;20042;-63
2021/09/07 00:33:14;;;;;;;12.93;8.20;;;;;;;23.58;52.03;101644.19;5021582;28;20046;-62
2021/09/07 00:35:42;;;;;;;12.00;7.60;;;;;;;23.61;52.47;101632.19;5029169;28;20097;-62
2021/09/07 00:38:10;;;;;;;10.88;7.13;;;;;;;23.52;52.74;101642.09;5030753;28;20051;-63
2021/09/07 00:40:38;;;;;;;20.92;8.23;;;;;;;23.47;52.46;101636.81;5031060;28;20033;-61
2021/09/07 00:43:05;;;;;;;13.48;7.78;;;;;;;23.28;53.18;101641.31;5026745;28;20053;-63
2021/09/07 00:45:33;;;;;;;10.77;7.45;;;;;;;23.33;53.46;101638.19;5035367;28;20045;-63
2021/09/07 00:48:00;;;;;;;11.82;7.70;;;;;;;23.39;52.95;101636.69;5035903;28;20057;-61
2021/09/07 00:50:27;;;;;;;12.95;7.63;;;;;;;23.30;53.19;101632.50;5036117;28;20056;-62
2021/09/07 00:52:56;;;;;;;11.40;7.47;;;;;;;23.29;53.57;101628.88;5035592;28;20041;-62
2021/09/07 00:55:25;;;;;;;12.93;7.82;;;;;;;23.33;53.06;101618.50;5034262;28;20058;-62
2021/09/07 00:57:55;;;;;;;16.60;7.70;;;;;;;23.24;53.30;101619.94;5036036;28;20046;-62
2021/09/07 01:00:23;;;;;;;12.88;8.10;;;;;;;23.24;52.91;101622.75;5036086;28;20041;-62
2021/09/07 01:02:50;;;;;;;12.30;7.93;;;;;;;23.23;53.73;101612.69;5035714;28;20045;-61
2021/09/07 01:05:17;;;;;;;13.00;7.40;;;;;;;23.19;53.49;101607.00;5035700;28;20065;-62
2021/09/07 01:07:45;;;;;;;12.48;7.18;;;;;;;23.20;53.58;101607.81;5035569;28;20111;-61
2021/09/07 01:10:13;;;;;;;14.27;7.70;;;;;;;23.22;53.77;101608.25;5035964;28;20045;-62
2021/09/07 01:12:43;;;;;;;11.68;7.57;;;;;;;23.15;53.90;101603.31;5039996;28;20056;-62
2021/09/07 01:15:11;;;;;;;10.45;7.32;;;;;;;23.15;53.40;101597.69;5054319;28;20048;-62
2021/09/07 01:17:39;;;;;;;13.35;7.20;;;;;;;23.16;53.67;101602.13;5055535;28;20055;-62
2021/09/07 01:20:09;;;;;;;14.40;8.23;;;;;;;23.21;53.51;101596.19;5050985;28;20044;-61
2021/09/07 01:22:36;;;;;;;11.60;7.63;;;;;;;23.14;53.21;101587.66;5001195;28;20296;-61
2021/09/07 01:25:04;;;;;;;12.77;7.50;;;;;;;23.10;53.26;101594.41;5034357;28;20064;-62
2021/09/07 01:27:32;;;;;;;12.05;7.90;;;;;;;23.07;53.72;101595.16;5033986;28;20059;-62
2021/09/07 01:30:01;;;;;;;10.77;7.50;;;;;;;23.03;53.51;101583.06;5035647;28;20069;-62
2021/09/07 01:32:29;;;;;;;13.90;7.90;;;;;;;23.06;53.95;101577.50;5034225;28;20056;-62
2021/09/07 01:34:56;;;;;;;13.32;7.50;;;;;;;23.05;53.66;101583.47;5035267;28;20064;-62
2021/09/07 01:37:23;;;;;;;12.20;6.93;;;;;;;23.07;52.08;101583.91;5017534;28;20056;-63
2021/09/07 01:39:50;;;;;;;11.43;7.18;;;;;;;23.16;52.87;101584.44;5017717;28;20056;-62
2021/09/07 01:42:22;;;;;;;11.20;6.72;;;;;;;23.07;52.99;101584.72;5035339;28;20046;-61
2021/09/07 01:44:49;;;;;;;13.70;7.03;;;;;;;23.16;52.87;101587.25;5035337;28;20053;-62
2021/09/07 01:47:16;;;;;;;10.27;7.20;;;;;;;23.09;53.17;101582.34;5034174;28;20056;-62
2021/09/07 01:49:43;;;;;;;10.90;7.32;;;;;;;22.95;53.46;101586.91;5035047;28;20056;-62
2021/09/07 01:52:13;;;;;;;13.38;7.47;;;;;;;22.86;53.71;101587.19;5014086;28;20049;-63
2021/09/07 01:54:45;;;;;;;10.35;7.35;;;;;;;22.84;54.25;101586.72;5013793;28;20064;-62
2021/09/07 01:57:14;;;;;;;13.00;7.25;;;;;;;22.74;54.16;101586.53;5013804;28;20053;-62
2021/09/07 01:59:43;;;;;;;14.80;7.25;;;;;;;22.84;54.10;101581.13;5015215;28;20057;-62
2021/09/07 02:02:13;;;;;;;12.10;7.32;;;;;;;22.85;54.89;101579.13;5015162;28;20053;-62
2021/09/07 02:04:46;;;;;;;12.52;6.97;;;;;;;22.90;54.45;101582.44;5014911;28;20085;-62
2021/09/07 02:07:14;;;;;;;11.77;7.00;;;;;;;22.87;54.48;101588.00;5013660;28;20045;-62
2021/09/07 02:09:43;;;;;;;12.95;7.13;;;;;;;22.76;54.47;101585.00;5013740;28;20046;-62
2021/09/07 02:12:11;;;;;;;11.88;7.40;;;;;;;22.73;55.19;101579.31;5015254;28;20049;-62
2021/09/07 02:14:39;;;;;;;10.88;7.28;;;;;;;22.69;55.38;101589.66;5015019;28;20084;-62
2021/09/07 02:17:07;;;;;;;11.95;7.47;;;;;;;22.72;54.67;101583.28;5013550;28;20045;-63
2021/09/07 02:19:34;;;;;;;14.30;7.28;;;;;;;22.75;55.33;101569.31;5014511;28;20034;-61
2021/09/07 02:22:03;;;;;;;11.60;7.70;;;;;;;22.75;55.24;101574.94;5033185;28;20497;-61
2021/09/07 02:24:30;;;;;;;15.23;7.10;;;;;;;22.74;55.21;101573.31;5000603;28;20053;-61
2021/09/07 02:26:57;;;;;;;10.95;7.32;;;;;;;22.73;54.96;101576.50;5033089;28;20053;-62
2021/09/07 02:29:25;;;;;;;12.00;7.03;;;;;;;22.67;55.29;101572.38;5033005;28;20049;-61
2021/09/07 02:31:53;;;;;;;13.88;7.72;;;;;;;22.63;54.91;101572.31;5033155;28;20493;-62
2021/09/07 02:34:22;;;;;;;13.93;7.13;;;;;;;22.66;55.47;101565.97;5034808;28;20053;-63
2021/09/07 02:36:50;;;;;;;11.80;7.38;;;;;;;22.69;55.67;101567.19;5033949;28;20054;-62
2021/09/07 02:39:17;;;;;;;13.23;7.65;;;;;;;22.58;55.63;101569.03;5032931;28;20057;-63
2021/09/07 02:41:45;;;;;;;11.00;7.20;;;;;;;22.71;54.72;101564.84;5034759;28;20072;-62
2021/09/07 02:44:13;;;;;;;10.55;7.78;;;;;;;22.64;55.18;101567.53;5034275;28;20049;-63
2021/09/07 02:46:41;;;;;;;10.20;7.25;;;;;;;22.47;55.25;101551.97;5016447;28;20056;-62
2021/09/07 02:49:08;;;;;;;10.18;7.40;;;;;;;22.42;55.49;101557.84;5032271;28;20053;-62
2021/09/07 02:51:36;;;;;;;12.02;7.63;;;;;;;22.46;55.91;101546.69;5032308;28;20673;-62
2021/09/07 02:54:04;;;;;;;11.18;7.60;;;;;;;22.47;55.61;101551.13;5034070;28;20049;-62
2021/09/07 02:56:32;;;;;;;12.90;8.00;;;;;;;22.44;56.04;101541.44;5034051;28;20058;-62
2021/09/07 02:59:00;;;;;;;10.90;7.30;;;;;;;22.33;55.92;101541.25;5033848;28;20056;-62
2021/09/07 03:01:28;;;;;;;11.25;7.97;;;;;;;22.40;56.10;101542.59;5033477;28;20124;-61
2021/09/07 03:03:56;;;;;;;11.05;7.88;;;;;;;22.44;55.76;101541.44;5033745;28;20083;-62
2021/09/07 03:06:23;;;;;;;12.98;7.72;;;;;;;22.47;55.66;101542.72;5032225;28;20108;-63
2021/09/07 03:08:53;;;;;;;11.38;7.57;;;;;;;22.48;55.49;101538.72;5033730;28;20045;-62
2021/09/07 03:11:20;;;;;;;13.00;8.10;;;;;;;22.37;55.85;101538.50;5033771;28;20046;-62
2021/09/07 03:13:47;;;;;;;13.85;7.68;;;;;;;22.31;56.25;101540.84;5046670;28;20568;-62
2021/09/07 03:16:15;;;;;;;12.60;7.85;;;;;;;22.23;56.52;101538.25;5053522;28;20075;-62
2021/09/07 03:18:43;;;;;;;11.75;7.57;;;;;;;22.18;55.91;101533.75;5053557;28;20045;-54
2021/09/07 03:21:12;;;;;;;10.77;8.05;;;;;;;22.31;56.23;101528.78;5051845;28;20044;-56
2021/09/07 03:23:39;;;;;;;10.93;8.10;;;;;;;22.23;55.85;101524.22;5053405;28;20045;-58
2021/09/07 03:26:06;;;;;;;11.63;7.45;;;;;;;22.20;56.26;101528.59;5051860;28;20063;-55
2021/09/07 03:28:34;;;;;;;12.07;8.15;;;;;;;22.14;55.70;101524.44;5053445;28;20060;-57
2021/09/07 03:31:02;;;;;;;16.17;8.77;;;;;;;22.20;56.33;101527.78;5052058;28;20045;-55
2021/09/07 03:33:30;;;;;;;12.48;8.38;;;;;;;22.29;56.36;101526.38;5053191;28;20057;-55
2021/09/07 03:35:58;;;;;;;10.68;7.75;;;;;;;22.40;55.62;101522.94;5052946;28;20063;-54
2021/09/07 03:38:26;;;;;;;10.02;7.65;;;;;;;22.27;55.55;101527.91;5053281;28;20053;-55
2021/09/07 03:40:54;;;;;;;11.10;8.35;;;;;;;22.27;55.96;101525.09;5053198;28;20049;-54
2021/09/07 03:43:21;;;;;;;10.52;8.13;;;;;;;22.26;55.64;101526.28;5052155;28;20128;-60
2021/09/07 03:45:49;;;;;;;12.07;7.82;;;;;;;22.27;56.08;101525.91;5052892;28;20060;-56
2021/09/07 03:48:16;;;;;;;11.48;7.63;;;;;;;22.33;55.93;101527.22;5051718;28;20067;-56
2021/09/07 03:50:44;;;;;;;14.93;8.02;;;;;;;22.32;55.73;101521.97;5037775;28;20042;-54
2021/09/07 03:53:13;;;;;;;11.18;7.80;;;;;;;22.35;56.10;101519.25;5015890;28;20060;-53
2021/09/07 03:55:41;;;;;;;10.68;7.28;;;;;;;22.31;56.11;101523.19;5033622;28;20404;-57
2021/09/07 03:58:09;;;;;;;11.68;7.78;;;;;;;22.38;56.18;101525.28;5033115;28;20137;-56
2021/09/07 04:00:36;;;;;;;12.48;8.02;;;;;;;22.29;56.23;101520.75;5031994;28;20042;-56
2021/09/07 04:03:15;;;;;;;16.92;8.10;;;;;;;22.23;55.88;101513.81;5015192;28;20048;-57
2021/09/07 04:05:43;;;;;;;11.93;7.68;;;;;;;22.18;55.93;101521.72;5032952;28;20053;-55
2021/09/07 04:08:11;;;;;;;9.88;7.78;;;;;;;22.16;56.54;101519.28;5031572;28;20072;-57
2021/09/07 04:10:38;;;;;;;11.90;8.10;;;;;;;22.16;56.51;101508.06;5035002;28;20598;-56
2021/09/07 04:13:07;;;;;;;16.17;7.80;;;;;;;22.14;56.48;101504.03;5044164;28;20195;-54
2021/09/07 04:15:34;;;;;;;15.70;8.35;;;;;;;22.19;56.55;101515.72;5056747;28;20053;-55
2021/09/07 04:18:02;;;;;;;11.60;7.55;;;;;;;22.15;56.55;101525.28;5056827;28;20049;-50
2021/09/07 04:20:30;;;;;;;11.50;8.05;;;;;;;22.08;56.72;101520.34;5056680;28;20052;-57
2021/09/07 04:22:58;;;;;;;12.20;7.60;;;;;;;22.08;56.61;101516.72;5056649;28;20060;-53
2021/09/07 04:25:25;;;;;;;12.00;7.72;;;;;;;21.98;56.78;101528.56;5056599;28;20102;-54
2021/09/07 04:27:53;;;;;;;10.52;7.68;;;;;;;21.97;57.01;101535.34;5056672;28;20049;-56
2021/09/07 04:30:21;;;;;;;12.73;8.07;;;;;;;21.84;57.09;101536.69;5056792;28;20082;-54
2021/09/07 04:32:48;;;;;;;12.68;8.15;;;;;;;22.00;57.64;101543.81;5056721;28;20053;-57
2021/09/07 04:35:15;;;;;;;14.45;8.35;;;;;;;22.01;57.02;101548.28;5056426;28;20052;-55
2021/09/07 04:37:43;;;;;;;12.05;8.02;;;;;;;21.97;57.42;101546.56;5055901;28;20053;-57
2021/09/07 04:40:10;;;;;;;13.70;8.70;;;;;;;21.97;57.31;101554.97;5044947;28;20443;-54
2021/09/07 04:42:38;;;;;;;15.40;8.30;;;;;;;21.96;56.96;101553.34;5027423;28;20504;-57
2021/09/07 04:45:07;;;;;;;13.75;8.30;;;;;;;22.00;57.36;101549.44;5016668;28;20050;-55
2021/09/07 04:47:36;;;;;;;11.45;8.15;;;;;;;21.90;57.55;101552.84;5032608;28;20060;-63
2021/09/07 04:50:05;;;;;;;14.45;7.95;;;;;;;21.87;57.84;101549.97;5018705;28;20056;-55
2021/09/07 04:52:32;;;;;;;12.57;8.23;;;;;;;21.95;57.37;101554.56;5035616;28;20041;-56
2021/09/07 04:55:00;;;;;;;14.20;8.52;;;;;;;21.96;57.53;101547.75;5036295;28;20049;-55
2021/09/07 04:57:27;;;;;;;11.60;8.25;;;;;;;21.89;57.66;101551.22;5035657;28;20057;-55
2021/09/07 04:59:54;;;;;;;11.95;8.52;;;;;;;22.02;57.64;101552.69;5036205;28;20461;-61
2021/09/07 05:02:22;;;;;;;17.42;8.27;;;;;;;22.05;57.53;101548.34;5018114;28;20647;-54
2021/09/07 05:04:49;;;;;;;12.80;8.50;;;;;;;22.00;57.45;101543.03;5034635;28;20069;-56
2021/09/07 05:07:17;;;;;;;12.65;8.35;;;;;;;21.90;57.89;101547.22;5035585;28;20084;-55
2021/09/07 05:09:44;;;;;;;11.93;8.35;;;;;;;21.97;57.87;101543.75;5034607;28;20064;-56
2021/09/07 05:12:11;;;;;;;13.43;8.68;;;;;;;21.87;58.17;101555.56;5036662;28;20041;-62
2021/09/07 05:14:43;;;;;;;13.75;8.68;;;;;;;21.75;58.50;101550.06;5014711;28;20138;-62
2021/09/07 05:17:11;;;;;;;14.68;8.75;;;;;;;21.79;58.09;101557.41;4982321;28;20065;-62
2021/09/07 05:19:38;;;;;;;13.50;8.70;;;;;;;21.76;58.40;101563.72;5013711;28;20053;-62
2021/09/07 05:22:05;;;;;;;14.55;9.00;;;;;;;21.83;58.52;101558.31;5014629;28;20440;-62
2021/09/07 05:24:35;;;;;;;16.13;8.82;;;;;;;21.88;58.03;101558.00;5036104;28;20501;-62
2021/09/07 05:27:03;;;;;;;11.85;8.40;;;;;;;21.89;58.18;101556.84;5025212;28;20525;-62
2021/09/07 05:29:31;;;;;;;12.40;8.45;;;;;;;21.83;58.72;101555.50;5015724;28;20046;-62
2021/09/07 05:31:58;;;;;;;13.18;8.93;;;;;;;22.00;58.17;101559.88;5016115;28;20053;-62
2021/09/07 05:34:29;;;;;;;15.52;9.07;;;;;;;21.96;57.93;101562.59;5014196;28;20409;-62
2021/09/07 05:36:57;;;;;;;14.18;8.70;;;;;;;21.93;58.07;101562.53;5013981;28;20057;-61
2021/09/07 05:39:24;;;;;;;17.75;10.70;;;;;;;21.90;58.27;101564.06;5019511;28;20050;-62
2021/09/07 05:41:52;;;;;;;18.17;11.93;;;;;;;21.96;58.46;101567.38;5040060;28;20488;-62
2021/09/07 05:44:21;;;;;;;15.95;9.18;;;;;;;21.89;58.47;101572.84;5032087;28;20046;-62
2021/09/07 05:46:51;;;;;;;14.60;8.93;;;;;;;21.95;58.29;101565.78;5013972;28;20050;-63
2021/09/07 05:49:20;;;;;;;11.77;8.63;;;;;;;22.08;58.02;101570.84;5013964;28;20057;-55
2021/09/07 05:51:48;;;;;;;20.38;9.35;;;;;;;22.03;58.38;101575.94;5014928;28;20787;-54
2021/09/07 05:54:15;;;;;;;15.80;9.07;;;;;;;21.93;57.91;101574.53;5046776;28;20046;-56
2021/09/07 05:56:42;;;;;;;19.77;9.80;;;;;;;21.93;58.01;101568.13;5017177;28;20049;-56
2021/09/07 05:59:09;;;;;;;15.65;9.82;;;;;;;;;;5034690;28;20069;-58
2021/09/07 06:01:38;;;;;;;13.00;9.13;;;;;;;21.73;59.12;101569.25;5034752;28;20045;-56
2021/09/07 06:04:06;;;;;;;17.13;9.73;;;;;;;21.98;58.71;101567.84;5035124;28;20065;-62
2021/09/07 06:06:33;;;;;;;16.02;9.05;;;;;;;21.84;58.18;101564.72;5034704;28;20058;-62
2021/09/07 06:09:00;;;;;;;18.42;9.40;;;;;;;21.73;58.63;101567.28;5034376;28;20160;-61
2021/09/07 06:11:28;;;;;;;17.75;9.25;;;;;;;21.94;59.07;101573.38;5034822;28;20057;-62
2021/09/07 06:13:55;;;;;;;16.23;9.20;;;;;;;21.93;58.32;101570.94;5048854;28;20044;-61
2021/09/07 06:16:23;;;;;;;12.43;9.23;;;;;;;21.89;58.34;101573.66;5034139;28;20045;-62
2021/09/07 06:18:51;;;;;;;15.25;9.77;;;;;;;21.96;58.37;101578.59;5023866;28;20056;-62
2021/09/07 06:21:18;;;;;;;17.10;10.13;;;;;;;21.92;58.23;101570.13;5027228;28;20393;-63
2021/09/07 06:23:58;;;;;;;;;;;;;;;21.98;58.30;101574.25;5032770;28;20068;-63
2021/09/07 06:26:26;;;;;;;21.10;9.65;;;;;;;21.96;58.49;101571.00;5023230;28;19928;-64
2021/09/07 06:28:53;;;;;;;17.65;9.50;;;;;;;22.04;58.85;101569.16;5033904;28;20050;-65
2021/09/07 06:31:20;;;;;;;20.73;10.52;;;;;;;22.02;59.36;101574.34;5030874;28;20456;-64
2021/09/07 06:33:48;;;;;;;20.52;10.57;;;;;;;22.10;59.09;101574.09;5024820;28;20392;-64
2021/09/07 06:36:15;;;;;;;24.00;12.35;;;;;;;22.29;59.07;101570.47;5031836;28;20057;-62
2021/09/07 06:38:42;;;;;;;22.85;11.25;;;;;;;22.35;58.88;101569.78;5026675;28;20064;-64
2021/09/07 06:41:10;;;;;;;27.58;17.23;;;;;;;22.51;57.84;101568.88;5030861;28;20061;-63
2021/09/07 06:43:37;;;;;;;30.05;20.05;;;;;;;22.46;57.89;101564.34;5018889;28;20046;-60
2021/09/07 06:46:05;;;;;;;26.73;12.55;;;;;;;22.53;58.30;101572.09;5021936;28;20072;-61
2021/09/07 06:48:32;;;;;;;26.77;11.93;;;;;;;22.41;59.02;101572.28;5047906;28;20463;-65
2021/09/07 06:51:00;;;;;;;26.15;12.25;;;;;;;22.39;58.38;101575.44;5024868;28;20701;-65
2021/09/07 06:53:27;;;;;;;23.75;12.63;;;;;;;22.41;58.17;101589.94;5028234;28;20060;-62
2021/09/07 06:55:55;;;;;;;22.60;13.73;;;;;;;22.56;57.63;101580.63;5022689;28;20050;-60
2021/09/07 06:58:22;;;;;;;20.67;12.25;;;;;;;22.64;57.07;101587.19;5029262;28;20056;-62
2021/09/07 07:00:49;;;;;;;29.52;14.55;;;;;;;22.64;56.72;101578.75;5028229;28;20060;-65
2021/09/07 07:03:18;;;;;;;38.65;19.08;;;;;;;22.55;56.73;101586.59;5030505;28;20050;-61
2021/09/07 07:05:45;;;;;;;30.67;16.52;;;;;;;22.66;57.13;101587.63;5020721;28;20057;-65
2021/09/07 07:08:12;;;;;;;26.67;13.32;;;;;;;22.67;56.61;101590.06;5026258;28;20078;-61
2021/09/07 07:10:40;;;;;;;27.52;12.68;;;;;;;22.56;56.44;101597.47;5032329;28;20412;-61
2021/09/07 07:13:11;;;;;;;26.65;13.05;;;;;;;22.70;56.68;101592.09;5037203;28;20056;-65
2021/09/07 07:15:39;;;;;;;26.25;13.50;;;;;;;22.62;56.48;101592.34;5027806;28;20433;-61
2021/09/07 07:18:06;;;;;;;20.40;12.13;;;;;;;22.76;56.63;101587.00;5030432;28;20069;-66
2021/09/07 07:20:33;;;;;;;27.98;13.13;;;;;;;22.76;56.19;101592.59;5031553;28;20049;-65
2021/09/07 07:23:04;;;;;;;35.55;13.43;;;;;;;22.79;56.06;101594.66;5029509;28;20056;-65
2021/09/07 07:25:37;;;;;;;32.53;13.50;;;;;;;23.21;54.89;101601.00;5006446;28;20436;-65
2021/09/07 07:28:04;;;;;;;24.13;12.43;;;;;;;23.00;54.94;101595.03;5032850;28;20052;-66
2021/09/07 07:30:32;;;;;;;29.40;13.25;;;;;;;22.98;55.06;101591.81;5030728;28;20064;-65
2021/09/07 07:32:59;;;;;;;29.80;12.43;;;;;;;23.02;55.13;101590.66;5032310;28;20057;-66
2021/09/07 07:35:27;;;;;;;24.55;12.15;;;;;;;23.04;54.74;101593.91;5032111;28;20057;-66
2021/09/07 07:37:54;;;;;;;35.35;12.60;;;;;;;23.08;54.60;101594.75;5018134;28;20060;-62
2021/09/07 07:40:23;;;;;;;30.98;12.55;;;;;;;23.25;54.56;101599.88;5015179;28;20168;-61
2021/09/07 07:42:50;;;;;;;25.13;13.07;;;;;;;23.39;53.88;101594.50;5031558;28;20046;-61
2021/09/07 07:45:18;;;;;;;26.30;11.57;;;;;;;23.09;52.81;101592.78;5028998;28;20080;-60
2021/09/07 07:47:45;;;;;;;25.25;12.18;;;;;;;23.38;52.57;101594.84;5026388;28;20361;-61
2021/09/07 07:50:12;;;;;;;22.73;11.50;;;;;;;23.67;51.72;101599.72;5031387;28;20049;-61
2021/09/07 07:52:40;;;;;;;18.88;12.35;;;;;;;24.01;50.35;101601.41;5017233;28;20057;-61
2021/09/07 07:55:07;;;;;;;21.85;12.32;;;;;;;23.94;50.22;101600.47;5027455;28;20534;-62
2021/09/07 07:57:34;;;;;;;22.23;10.80;;;;;;;23.95;49.53;101590.84;5031872;28;20045;-61
2021/09/07 08:00:03;;;;;;;20.08;10.27;;;;;;;23.48;48.03;101594.22;5036444;28;20045;-62
2021/09/07 08:02:31;;;;;;;16.00;8.68;;;;;;;23.53;46.87;101588.28;5037262;28;20056;-62
2021/09/07 08:04:58;;;;;;;14.85;7.95;;;;;;;23.79;46.83;101593.88;5037279;28;20041;-62
2021/09/07 08:07:26;;;;;;;18.70;8.35;;;;;;;23.92;46.54;101597.25;5031044;28;20049;-64
2021/09/07 08:09:53;;;;;;;16.08;7.75;;;;;;;24.12;45.97;101588.28;5018715;28;20565;-65
2021/09/07 08:12:22;;;;;;;14.57;7.57;;;;;;;24.23;45.11;101594.84;5037979;28;20053;-63
2021/09/07 08:14:49;;;;;;;12.80;7.05;;;;;;;24.22;45.39;101590.41;5037636;28;20049;-63
2021/09/07 08:17:16;;;;;;;17.60;8.15;;;;;;;24.24;45.27;101590.03;5024196;28;20053;-63
2021/09/07 08:19:44;;;;;;;15.85;7.70;;;;;;;24.39;45.71;101589.00;5030594;28;20052;-65
2021/09/07 08:22:14;;;;;;;14.32;7.22;;;;;;;24.49;44.45;101589.13;5026625;28;20056;-63
2021/09/07 08:24:41;;;;;;;17.40;7.45;;;;;;;24.51;44.34;101591.53;5033421;28;20050;-63
2021/09/07 08:27:11;;;;;;;18.95;7.22;;;;;;;24.53;44.27;101591.94;5036756;28;20052;-64
2021/09/07 08:29:38;;;;;;;15.23;7.13;;;;;;;24.63;42.77;101585.63;5034520;28;20037;-64
2021/09/07 08:32:08;;;;;;;15.15;6.95;;;;;;;24.64;43.87;101595.69;5019951;28;20148;-64
2021/09/07 08:34:36;;;;;;;11.48;7.18;;;;;;;24.61;43.76;101599.28;5021508;28;20045;-64
2021/09/07 08:37:04;;;;;;;13.68;6.70;;;;;;;24.69;44.05;101591.72;5023138;28;20085;-64
2021/09/07 08:39:31;;;;;;;16.08;7.65;;;;;;;24.71;42.91;101587.34;5033486;28;20433;-64
2021/09/07 08:41:59;;;;;;;18.38;6.93;;;;;;;24.72;42.39;101588.97;5036503;28;20045;-66
2021/09/07 08:44:27;;;;;;;12.02;7.05;;;;;;;24.88;42.78;101586.69;5034025;28;20064;-67
2021/09/07 08:46:55;;;;;;;11.90;6.82;;;;;;;25.08;42.37;101590.88;5035926;28;20046;-68
2021/09/07 08:49:22;;;;;;;11.50;6.93;;;;;;;24.27;42.49;101586.44;5032037;28;20061;-67
2021/09/07 08:51:50;;;;;;;18.17;7.15;;;;;;;24.49;43.64;101594.75;5034569;28;20049;-68
2021/09/07 08:54:18;;;;;;;14.90;7.13;;;;;;;25.04;41.72;101597.69;5032724;28;20052;-67
2021/09/07 08:56:45;;;;;;;13.95;7.00;;;;;;;24.62;42.32;101598.06;5031907;28;20420;-70
2021/09/07 08:59:12;;;;;;;13.85;6.95;;;;;;;24.66;42.32;101598.09;5034555;28;20060;-68
2021/09/07 09:01:41;;;;;;;17.33;6.55;;;;;;;24.67;41.71;101602.56;5032448;28;20042;-68
2021/09/07 09:04:29;;;;;;;12.27;6.97;;;;;;;24.58;41.61;101599.25;5036071;28;20673;-68
2021/09/07 09:06:57;;;;;;;12.45;6.82;;;;;;;24.60;41.42;101591.22;5036109;28;20060;-67
2021/09/07 09:09:37;;;;;;;15.43;6.80;;;;;;;24.67;41.84;101589.25;5048505;28;20056;-68
2021/09/07 09:12:06;;;;;;;12.18;6.72;;;;;;;24.70;41.82;101599.81;5040730;28;20053;-67
2021/09/07 09:14:36;;;;;;;12.65;6.97;;;;;;;25.11;40.83;101590.09;5012103;28;20045;-68
2021/09/07 09:17:19;;;;;;;;;;;;;;;24.89;41.56;101596.78;5024382;28;20050;-67
2021/09/07 09:20:23;;;;;;;17.98;6.93;;;;;;;24.66;41.33;101600.94;5020824;28;19924;-67
2021/09/07 09:22:52;;;;;;;10.80;6.53;;;;;;;24.79;41.38;101603.13;5019975;28;20053;-67
2021/09/07 09:25:19;;;;;;;13.07;7.78;;;;;;;25.05;40.64;101602.13;5036081;28;20049;-68
2021/09/07 09:28:05;;;;;;;14.98;7.00;;;;;;;24.99;40.79;101606.50;5030417;28;20073;-67
2021/09/07 09:30:38;;;;;;;12.02;6.18;;;;;;;25.29;40.85;101607.97;5028060;28;20049;-67
2021/09/07 09:33:06;;;;;;;11.02;6.50;;;;;;;25.46;40.03;101600.84;5034041;28;20045;-67
2021/09/07 09:35:50;;;;;;;15.52;6.43;;;;;;;25.54;39.60;101606.16;5024901;28;20052;-67
2021/09/07 09:38:19;;;;;;;13.80;6.47;;;;;;;25.18;40.28;101594.97;5035010;28;20045;-66
2021/09/07 09:40:54;;;;;;;11.10;6.37;;;;;;;24.89;40.74;101596.78;5034281;28;20045;-67
2021/09/07 09:43:21;;;;;;;13.60;6.28;;;;;;;24.97;40.32;101592.81;4989534;28;20050;-67
2021/09/07 09:45:49;;;;;;;14.80;6.50;;;;;;;25.20;39.95;101589.75;5021476;28;20050;-66
2021/09/07 09:48:34;;;;;;;13.13;7.00;;;;;;;25.06;40.49;101584.00;5034451;28;20041;-67
2021/09/07 09:51:02;;;;;;;11.55;6.70;;;;;;;25.39;40.21;101573.41;5031983;28;20057;-67
2021/09/07 09:53:29;;;;;;;15.20;6.32;;;;;;;25.23;39.97;101566.41;5033719;28;20049;-67
2021/09/07 09:55:56;;;;;;;14.95;6.50;;;;;;;25.55;39.66;101573.91;5033057;28;20053;-67
2021/09/07 09:58:24;;;;;;;11.15;6.60;;;;;;;25.39;40.05;101564.13;5014408;28;20054;-68
2021/09/07 10:00:52;;;;;;;12.20;5.90;;;;;;;25.48;39.52;101558.97;5020091;28;20052;-68
2021/09/07 10:03:22;;;;;;;11.27;6.47;;;;;;;25.46;39.05;101553.72;5026480;28;20050;-67
2021/09/07 10:05:49;;;;;;;14.05;6.00;;;;;;;25.32;40.14;101553.59;5020811;28;20503;-67
2021/09/07 10:08:18;;;;;;;10.20;6.25;;;;;;;25.44;39.70;101552.47;5033522;28;20057;-68
2021/09/07 10:10:56;;;;;;;12.88;6.25;;;;;;;25.76;39.02;101549.81;5017108;28;20052;-67
2021/09/07 10:13:29;;;;;;;10.32;5.65;;;;;;;25.96;38.45;101542.66;5035609;28;20045;-67
2021/09/07 10:16:03;;;;;;;9.38;6.00;;;;;;;25.89;38.18;101545.47;5045742;28;20050;-70
2021/09/07 10:26:38;;;;;;;12.18;5.93;;;;;;;25.72;38.81;101527.22;5031075;28;20062;-68
2021/09/07 10:29:06;;;;;;;11.68;6.40;;;;;;;25.93;38.29;101527.31;5030355;28;20162;-67
2021/09/07 10:31:40;;;;;;;10.13;6.07;;;;;;;25.92;37.72;101511.59;5016003;28;20053;-70
2021/09/07 10:34:11;;;;;;;12.10;5.88;;;;;;;25.96;38.00;101505.97;5013433;28;20042;-67
2021/09/07 10:36:58;;;;;;;11.77;5.70;;;;;;;25.99;37.77;101508.78;5030576;28;20055;-67
2021/09/07 10:39:35;;;;;;;8.82;5.80;;;;;;;26.12;37.32;101503.59;5046363;28;20061;-66
2021/09/07 10:42:27;;;;;;;11.60;6.22;;;;;;;26.12;37.81;101507.22;5027849;28;20060;-68
2021/09/07 10:44:59;;;;;;;11.63;8.27;;;;;;;26.23;37.12;101508.06;5016210;28;20054;-67
2021/09/07 10:47:43;;;;;;;10.32;5.88;;;;;;;26.38;37.06;101501.22;5017104;28;20046;-65
2021/09/07 10:50:10;;;;;;;9.98;5.53;;;;;;;26.60;36.80;101496.41;5018399;28;20054;-66
2021/09/07 10:52:38;;;;;;;12.38;6.18;;;;;;;26.72;36.72;101484.72;5014091;28;20050;-71
2021/09/07 10:55:11;;;;;;;14.63;6.15;;;;;;;26.71;36.21;101477.44;5014463;28;20042;-64
2021/09/07 10:57:39;;;;;;;11.40;7.00;;;;;;;26.70;36.68;101477.84;5018404;28;20045;-64
2021/09/07 11:00:09;;;;;;;8.00;5.70;;;;;;;26.80;36.76;101477.06;5012025;28;20060;-64
2021/09/07 11:02:41;;;;;;;10.82;6.13;;;;;;;26.83;36.46;101468.56;5013648;28;20054;-64
2021/09/07 11:05:12;;;;;;;10.60;5.63;;;;;;;26.69;36.17;101462.91;5013775;28;20417;-65
2021/09/07 11:07:45;;;;;;;12.18;6.35;;;;;;;26.55;36.42;101465.72;5014260;28;20297;-64
2021/09/07 11:10:18;;;;;;;10.57;5.50;;;;;;;26.44;36.33;101464.91;5013788;28;20516;-63
2021/09/07 11:12:55;;;;;;;9.63;5.63;;;;;;;26.39;36.87;101454.81;5021618;28;20060;-63
2021/09/07 11:15:25;;;;;;;8.48;5.57;;;;;;;26.52;36.48;101447.53;5034045;28;20689;-61
2021/09/07 11:17:54;;;;;;;10.63;5.80;;;;;;;26.56;36.59;101442.72;5032510;28;20054;-64
2021/09/07 11:20:30;;;;;;;12.60;5.68;;;;;;;26.76;36.49;101445.13;5029799;28;20045;-63
2021/09/07 11:22:57;;;;;;;7.65;5.28;;;;;;;26.71;36.47;101437.84;5028935;28;20060;-65
2021/09/07 11:25:25;;;;;;;12.07;6.10;;;;;;;26.83;36.30;101437.47;5019366;28;20048;-66
2021/09/07 11:28:00;;;;;;;9.18;5.95;;;;;;;26.78;36.07;101425.75;5012063;28;20065;-66
2021/09/07 11:30:31;;;;;;;9.27;6.43;;;;;;;26.89;36.35;101435.00;5018613;28;20046;-67
2021/09/07 11:33:08;;;;;;;7.63;5.63;;;;;;;26.87;36.42;101424.09;5019659;28;20049;-66